Campanya Meteocatpedra
Centenari de l'SMC: 100 anys mirant el cel

Dades de l'estació automàtica Tornabous

?
?

Resum diari

22:30 TU
Dades diàries de l'estació meteorològica
Temperatura mitjana 15.9 °C
Temperatura màxima 24.5 °C 14:28 TU
Temperatura mínima 8.3 °C 5:51 TU
Humitat relativa mitjana 72%
Precipitació acumulada 0.0 mm
Ratxa màxima del vent (2 m) 27.0 km/h - 232º 15:25 TU

El tram horari està expressat en Temps Universal (TU). Cal sumar una hora en horari d'hivern i dues en horari d'estiu per passar a l'hora oficial.

Tornabous

Metadades estació meteorològica
Municipi Tornabous
Comarca Urgell
Altitud 291 m
Data alta 06.08.2013
Estat actual Operativa
Dades de període
Període
TU
TM
°C
TX
°C
TN
°C
HRM
%
PPT
mm
VVM (2 m)
km/h
DVM (2 m)
graus
VVX (2 m)
km/h
00:00 - 00:30 11.0 11.1 10.8 100 0.0 0.4 111 1.8
00:30 - 01:00 10.7 11.1 10.6 100 0.0 0.7 104 2.5
01:00 - 01:30 10.8 11.2 10.4 100 0.0 0.0 109 2.2
01:30 - 02:00 10.7 11.1 10.3 100 0.0 0.0 139 1.8
02:00 - 02:30 10.1 10.4 9.8 100 0.0 0.0 169 0.7
02:30 - 03:00 10.3 10.6 10.0 100 0.0 0.4 182 2.5
03:00 - 03:30 10.6 11.0 9.9 100 0.0 0.7 194 3.2
03:30 - 04:00 9.9 10.5 9.4 100 0.0 0.0 109 1.8
04:00 - 04:30 9.6 9.8 9.2 100 0.0 0.0 109 1.4
04:30 - 05:00 9.2 9.4 9.0 100 0.0 0.0 110 1.1
05:00 - 05:30 9.4 9.8 8.9 100 0.0 0.0 107 1.4
05:30 - 06:00 8.6 9.1 8.3 100 0.0 0.0 67 2.2
06:00 - 06:30 9.0 9.6 8.7 100 0.0 0.0 99 1.8
06:30 - 07:00 10.4 11.6 9.6 100 0.0 0.4 115 2.2
07:00 - 07:30 13.9 14.5 11.8 96 0.0 1.4 223 6.8
07:30 - 08:00 15.1 15.8 14.5 85 0.0 4.0 231 12.6
08:00 - 08:30 16.7 17.2 15.8 76 0.0 4.3 252 12.2
08:30 - 09:00 17.7 18.0 17.2 70 0.0 8.3 240 17.3
09:00 - 09:30 17.9 18.7 17.6 68 0.0 7.9 246 18.0
09:30 - 10:00 18.5 19.5 18.0 66 0.0 8.6 254 19.8
10:00 - 10:30 19.6 19.8 19.3 63 0.0 9.0 244 18.0
10:30 - 11:00 20.0 20.5 19.5 61 0.0 9.7 256 21.2
11:00 - 11:30 20.9 21.6 20.5 58 0.0 7.9 258 18.0
11:30 - 12:00 21.8 22.2 21.2 54 0.0 9.0 255 20.5
12:00 - 12:30 22.3 22.5 22.1 52 0.0 8.6 255 19.8
12:30 - 13:00 22.9 23.3 22.3 51 0.0 8.3 268 20.2
13:00 - 13:30 23.3 23.6 23.1 48 0.0 9.4 255 21.2
13:30 - 14:00 23.8 24.3 23.5 45 0.0 9.4 254 25.6
14:00 - 14:30 24.1 24.5 23.7 41 0.0 9.0 246 21.2
14:30 - 15:00 24.0 24.4 23.7 36 0.0 10.4 238 22.7
15:00 - 15:30 23.8 24.0 23.4 33 0.0 11.2 237 27.0
15:30 - 16:00 23.2 23.6 22.5 33 0.0 10.8 246 24.8
16:00 - 16:30 22.2 22.8 21.9 36 0.0 11.2 245 23.0
16:30 - 17:00 21.4 22.4 20.4 40 0.0 7.9 252 21.2
17:00 - 17:30 20.0 20.4 19.8 46 0.0 6.1 257 15.8
17:30 - 18:00 19.4 19.9 18.8 46 0.0 6.5 251 14.4
18:00 - 18:30 17.9 18.9 15.4 51 0.0 2.5 216 14.0
18:30 - 19:00 15.4 15.9 14.8 62 0.0 1.1 182 4.3
19:00 - 19:30 16.2 16.5 15.5 54 0.0 2.5 210 9.0
19:30 - 20:00 14.3 15.4 13.5 65 0.0 1.1 170 4.7
20:00 - 20:30 13.2 14.4 11.9 72 0.0 1.4 83 4.0
20:30 - 21:00 12.4 12.7 12.0 78 0.0 1.1 79 4.3
21:00 - 21:30 12.3 12.6 11.7 81 0.0 0.4 86 1.8
21:30 - 22:00 11.9 12.2 11.7 88 0.0 0.0 85 1.8
22:00 - 22:30 13.0 13.6 12.1 78 0.0 1.8 163 5.4
22:30 - 23:00 13.2 13.5 12.7 74 0.0 1.8 156 5.4

Les dades en taronja només han passat un control de qualitat automàtic. Resta pendent la seva validació definitiva.